sensor_id;sensor_type;location;lat;lon;timestamp;P1;durP1;ratioP1;P2;durP2;ratioP2
9465;SDS011;4771;48.726;9.006;2022-10-31T00:01:53;6.25;;;3.47;;
9465;SDS011;4771;48.726;9.006;2022-10-31T00:04:20;10.25;;;3.50;;
9465;SDS011;4771;48.726;9.006;2022-10-31T00:06:47;6.70;;;3.75;;
9465;SDS011;4771;48.726;9.006;2022-10-31T00:09:14;9.48;;;3.90;;
9465;SDS011;4771;48.726;9.006;2022-10-31T00:11:41;8.70;;;3.30;;
9465;SDS011;4771;48.726;9.006;2022-10-31T00:14:08;6.50;;;3.50;;
9465;SDS011;4771;48.726;9.006;2022-10-31T00:16:36;12.02;;;3.97;;
9465;SDS011;4771;48.726;9.006;2022-10-31T00:19:04;7.38;;;3.45;;
9465;SDS011;4771;48.726;9.006;2022-10-31T00:21:32;6.90;;;3.70;;
9465;SDS011;4771;48.726;9.006;2022-10-31T00:24:00;7.85;;;3.80;;
9465;SDS011;4771;48.726;9.006;2022-10-31T00:26:28;8.68;;;3.53;;
9465;SDS011;4771;48.726;9.006;2022-10-31T00:28:55;10.23;;;3.60;;
9465;SDS011;4771;48.726;9.006;2022-10-31T00:31:22;7.25;;;3.80;;
9465;SDS011;4771;48.726;9.006;2022-10-31T00:33:51;12.07;;;3.83;;
9465;SDS011;4771;48.726;9.006;2022-10-31T00:36:18;10.82;;;3.58;;
9465;SDS011;4771;48.726;9.006;2022-10-31T00:38:47;9.10;;;3.63;;
9465;SDS011;4771;48.726;9.006;2022-10-31T00:41:15;8.32;;;3.85;;
9465;SDS011;4771;48.726;9.006;2022-10-31T00:43:43;7.28;;;3.33;;
9465;SDS011;4771;48.726;9.006;2022-10-31T00:46:11;8.80;;;3.58;;
9465;SDS011;4771;48.726;9.006;2022-10-31T00:48:38;10.68;;;3.70;;
9465;SDS011;4771;48.726;9.006;2022-10-31T00:51:07;11.00;;;3.88;;
9465;SDS011;4771;48.726;9.006;2022-10-31T00:53:34;10.80;;;4.00;;
9465;SDS011;4771;48.726;9.006;2022-10-31T00:56:02;8.75;;;3.97;;
9465;SDS011;4771;48.726;9.006;2022-10-31T00:58:29;6.45;;;3.97;;
9465;SDS011;4771;48.726;9.006;2022-10-31T01:00:56;7.13;;;3.83;;
9465;SDS011;4771;48.726;9.006;2022-10-31T01:03:23;10.15;;;3.97;;
9465;SDS011;4771;48.726;9.006;2022-10-31T01:05:55;8.73;;;3.83;;
9465;SDS011;4771;48.726;9.006;2022-10-31T01:08:27;5.65;;;3.40;;
9465;SDS011;4771;48.726;9.006;2022-10-31T01:10:59;6.50;;;3.30;;
9465;SDS011;4771;48.726;9.006;2022-10-31T01:13:28;8.65;;;3.58;;
9465;SDS011;4771;48.726;9.006;2022-10-31T01:15:55;8.38;;;3.70;;
9465;SDS011;4771;48.726;9.006;2022-10-31T01:18:23;7.65;;;3.70;;
9465;SDS011;4771;48.726;9.006;2022-10-31T01:20:58;9.98;;;4.05;;
9465;SDS011;4771;48.726;9.006;2022-10-31T01:23:27;6.25;;;3.17;;
9465;SDS011;4771;48.726;9.006;2022-10-31T01:25:59;9.23;;;3.30;;
9465;SDS011;4771;48.726;9.006;2022-10-31T01:28:30;6.00;;;3.65;;
9465;SDS011;4771;48.726;9.006;2022-10-31T01:30:59;8.50;;;3.50;;
9465;SDS011;4771;48.726;9.006;2022-10-31T01:33:27;9.25;;;3.90;;
9465;SDS011;4771;48.726;9.006;2022-10-31T01:35:54;8.27;;;3.58;;
9465;SDS011;4771;48.726;9.006;2022-10-31T01:38:21;6.95;;;3.70;;
9465;SDS011;4771;48.726;9.006;2022-10-31T01:40:49;6.72;;;3.85;;
9465;SDS011;4771;48.726;9.006;2022-10-31T01:43:17;7.47;;;3.90;;
9465;SDS011;4771;48.726;9.006;2022-10-31T01:45:44;6.72;;;3.80;;
9465;SDS011;4771;48.726;9.006;2022-10-31T01:48:16;8.63;;;3.90;;
9465;SDS011;4771;48.726;9.006;2022-10-31T01:50:49;8.07;;;3.80;;
9465;SDS011;4771;48.726;9.006;2022-10-31T01:53:20;8.25;;;3.90;;
9465;SDS011;4771;48.726;9.006;2022-10-31T01:55:47;7.68;;;4.18;;
9465;SDS011;4771;48.726;9.006;2022-10-31T01:58:22;5.50;;;4.10;;
9465;SDS011;4771;48.726;9.006;2022-10-31T02:00:53;7.93;;;3.60;;
9465;SDS011;4771;48.726;9.006;2022-10-31T02:03:24;10.23;;;3.70;;
9465;SDS011;4771;48.726;9.006;2022-10-31T02:05:53;9.68;;;4.00;;
9465;SDS011;4771;48.726;9.006;2022-10-31T02:08:23;6.97;;;3.72;;
9465;SDS011;4771;48.726;9.006;2022-10-31T02:10:54;6.85;;;3.80;;
9465;SDS011;4771;48.726;9.006;2022-10-31T02:13:23;9.10;;;3.83;;
9465;SDS011;4771;48.726;9.006;2022-10-31T02:15:52;7.38;;;3.70;;
9465;SDS011;4771;48.726;9.006;2022-10-31T02:18:20;7.47;;;3.60;;
9465;SDS011;4771;48.726;9.006;2022-10-31T02:20:53;6.28;;;3.60;;
9465;SDS011;4771;48.726;9.006;2022-10-31T02:32:25;7.43;;;3.88;;
9465;SDS011;4771;48.726;9.006;2022-10-31T02:34:57;9.93;;;4.10;;
9465;SDS011;4771;48.726;9.006;2022-10-31T02:37:33;7.50;;;4.03;;
9465;SDS011;4771;48.726;9.006;2022-10-31T02:40:05;7.50;;;3.67;;
9465;SDS011;4771;48.726;9.006;2022-10-31T02:42:40;11.00;;;3.92;;
9465;SDS011;4771;48.726;9.006;2022-10-31T02:45:17;7.55;;;4.03;;
9465;SDS011;4771;48.726;9.006;2022-10-31T02:47:51;7.65;;;3.90;;
9465;SDS011;4771;48.726;9.006;2022-10-31T02:50:23;11.77;;;3.72;;
9465;SDS011;4771;48.726;9.006;2022-10-31T02:52:54;7.47;;;3.80;;
9465;SDS011;4771;48.726;9.006;2022-10-31T02:55:42;7.55;;;3.78;;
9465;SDS011;4771;48.726;9.006;2022-10-31T02:58:32;7.18;;;4.00;;
9465;SDS011;4771;48.726;9.006;2022-10-31T03:04:13;6.22;;;3.75;;
9465;SDS011;4771;48.726;9.006;2022-10-31T03:06:51;6.38;;;3.53;;
9465;SDS011;4771;48.726;9.006;2022-10-31T03:09:23;7.90;;;3.80;;
9465;SDS011;4771;48.726;9.006;2022-10-31T03:11:54;7.85;;;4.00;;
9465;SDS011;4771;48.726;9.006;2022-10-31T03:14:26;6.57;;;3.88;;
9465;SDS011;4771;48.726;9.006;2022-10-31T03:17:02;9.23;;;3.97;;
9465;SDS011;4771;48.726;9.006;2022-10-31T03:19:35;7.47;;;3.95;;
9465;SDS011;4771;48.726;9.006;2022-10-31T03:22:07;8.77;;;3.65;;
9465;SDS011;4771;48.726;9.006;2022-10-31T03:24:41;11.23;;;4.20;;
9465;SDS011;4771;48.726;9.006;2022-10-31T03:27:10;5.93;;;3.65;;
9465;SDS011;4771;48.726;9.006;2022-10-31T03:29:40;6.97;;;4.28;;
9465;SDS011;4771;48.726;9.006;2022-10-31T03:32:09;7.55;;;3.80;;
9465;SDS011;4771;48.726;9.006;2022-10-31T03:34:42;6.87;;;3.20;;
9465;SDS011;4771;48.726;9.006;2022-10-31T03:37:13;9.52;;;3.67;;
9465;SDS011;4771;48.726;9.006;2022-10-31T03:39:42;15.52;;;4.25;;
9465;SDS011;4771;48.726;9.006;2022-10-31T03:42:11;9.53;;;3.73;;
9465;SDS011;4771;48.726;9.006;2022-10-31T03:44:42;9.23;;;4.33;;
9465;SDS011;4771;48.726;9.006;2022-10-31T03:47:12;10.43;;;3.90;;
9465;SDS011;4771;48.726;9.006;2022-10-31T03:49:40;13.02;;;3.85;;
9465;SDS011;4771;48.726;9.006;2022-10-31T03:52:09;4.55;;;3.50;;
9465;SDS011;4771;48.726;9.006;2022-10-31T03:54:44;8.38;;;3.90;;
9465;SDS011;4771;48.726;9.006;2022-10-31T03:57:16;8.43;;;3.90;;
9465;SDS011;4771;48.726;9.006;2022-10-31T03:59:49;8.98;;;4.28;;
9465;SDS011;4771;48.726;9.006;2022-10-31T04:02:20;8.80;;;3.67;;
9465;SDS011;4771;48.726;9.006;2022-10-31T04:04:51;5.68;;;3.83;;
9465;SDS011;4771;48.726;9.006;2022-10-31T04:07:19;8.70;;;3.60;;
9465;SDS011;4771;48.726;9.006;2022-10-31T04:09:49;9.25;;;4.10;;
9465;SDS011;4771;48.726;9.006;2022-10-31T04:12:17;8.20;;;3.70;;
9465;SDS011;4771;48.726;9.006;2022-10-31T04:14:46;6.68;;;3.92;;
9465;SDS011;4771;48.726;9.006;2022-10-31T04:17:16;6.27;;;3.60;;
9465;SDS011;4771;48.726;9.006;2022-10-31T04:19:45;11.17;;;3.90;;
9465;SDS011;4771;48.726;9.006;2022-10-31T04:22:12;7.05;;;4.22;;
9465;SDS011;4771;48.726;9.006;2022-10-31T04:24:40;6.10;;;4.13;;
9465;SDS011;4771;48.726;9.006;2022-10-31T04:27:07;7.73;;;3.90;;
9465;SDS011;4771;48.726;9.006;2022-10-31T04:29:34;7.90;;;3.90;;
9465;SDS011;4771;48.726;9.006;2022-10-31T04:32:02;8.13;;;3.80;;
9465;SDS011;4771;48.726;9.006;2022-10-31T04:34:29;5.43;;;3.60;;
9465;SDS011;4771;48.726;9.006;2022-10-31T04:36:56;5.80;;;3.70;;
9465;SDS011;4771;48.726;9.006;2022-10-31T04:39:23;7.43;;;4.43;;
9465;SDS011;4771;48.726;9.006;2022-10-31T04:41:51;11.43;;;4.37;;
9465;SDS011;4771;48.726;9.006;2022-10-31T04:44:18;10.30;;;3.75;;
9465;SDS011;4771;48.726;9.006;2022-10-31T04:46:45;8.37;;;4.20;;
9465;SDS011;4771;48.726;9.006;2022-10-31T04:49:12;8.53;;;3.93;;
9465;SDS011;4771;48.726;9.006;2022-10-31T04:51:39;7.43;;;4.03;;
9465;SDS011;4771;48.726;9.006;2022-10-31T04:54:06;10.57;;;4.70;;
9465;SDS011;4771;48.726;9.006;2022-10-31T04:56:33;8.60;;;4.00;;
9465;SDS011;4771;48.726;9.006;2022-10-31T04:59:01;7.43;;;3.93;;
9465;SDS011;4771;48.726;9.006;2022-10-31T05:01:28;8.93;;;4.50;;
9465;SDS011;4771;48.726;9.006;2022-10-31T05:03:55;6.03;;;3.60;;
9465;SDS011;4771;48.726;9.006;2022-10-31T05:06:22;8.63;;;3.67;;
9465;SDS011;4771;48.726;9.006;2022-10-31T05:08:49;8.57;;;3.90;;
9465;SDS011;4771;48.726;9.006;2022-10-31T05:11:16;7.70;;;4.10;;
9465;SDS011;4771;48.726;9.006;2022-10-31T05:13:43;10.05;;;4.07;;
9465;SDS011;4771;48.726;9.006;2022-10-31T05:16:11;7.22;;;4.00;;
9465;SDS011;4771;48.726;9.006;2022-10-31T05:18:38;10.95;;;4.20;;
9465;SDS011;4771;48.726;9.006;2022-10-31T05:21:05;7.27;;;4.30;;
9465;SDS011;4771;48.726;9.006;2022-10-31T05:23:32;6.97;;;3.80;;
9465;SDS011;4771;48.726;9.006;2022-10-31T05:25:59;9.00;;;4.20;;
9465;SDS011;4771;48.726;9.006;2022-10-31T05:28:26;8.43;;;3.80;;
9465;SDS011;4771;48.726;9.006;2022-10-31T05:30:52;9.35;;;4.35;;
9465;SDS011;4771;48.726;9.006;2022-10-31T05:33:21;7.10;;;3.67;;
9465;SDS011;4771;48.726;9.006;2022-10-31T05:35:48;9.27;;;3.70;;
9465;SDS011;4771;48.726;9.006;2022-10-31T05:38:15;6.83;;;4.10;;
9465;SDS011;4771;48.726;9.006;2022-10-31T05:40:42;7.97;;;4.30;;
9465;SDS011;4771;48.726;9.006;2022-10-31T05:43:09;7.80;;;3.90;;
9465;SDS011;4771;48.726;9.006;2022-10-31T05:45:37;9.87;;;4.07;;
9465;SDS011;4771;48.726;9.006;2022-10-31T05:48:04;9.97;;;3.83;;
9465;SDS011;4771;48.726;9.006;2022-10-31T05:50:32;10.57;;;4.43;;
9465;SDS011;4771;48.726;9.006;2022-10-31T05:53:00;7.87;;;4.07;;
9465;SDS011;4771;48.726;9.006;2022-10-31T05:55:28;6.00;;;3.80;;
9465;SDS011;4771;48.726;9.006;2022-10-31T05:57:55;7.20;;;3.73;;
9465;SDS011;4771;48.726;9.006;2022-10-31T06:00:23;9.27;;;4.40;;
9465;SDS011;4771;48.726;9.006;2022-10-31T06:02:57;11.60;;;4.40;;
9465;SDS011;4771;48.726;9.006;2022-10-31T06:05:24;7.00;;;4.13;;
9465;SDS011;4771;48.726;9.006;2022-10-31T06:07:53;7.93;;;4.50;;
9465;SDS011;4771;48.726;9.006;2022-10-31T06:10:20;8.55;;;4.72;;
9465;SDS011;4771;48.726;9.006;2022-10-31T06:12:47;7.77;;;4.63;;
9465;SDS011;4771;48.726;9.006;2022-10-31T06:15:14;7.00;;;3.90;;
9465;SDS011;4771;48.726;9.006;2022-10-31T06:17:42;7.87;;;4.57;;
9465;SDS011;4771;48.726;9.006;2022-10-31T06:20:09;6.03;;;4.10;;
9465;SDS011;4771;48.726;9.006;2022-10-31T06:22:37;11.10;;;4.77;;
9465;SDS011;4771;48.726;9.006;2022-10-31T06:25:05;7.60;;;4.10;;
9465;SDS011;4771;48.726;9.006;2022-10-31T06:27:33;11.57;;;4.40;;
9465;SDS011;4771;48.726;9.006;2022-10-31T06:30:00;9.93;;;4.97;;
9465;SDS011;4771;48.726;9.006;2022-10-31T06:32:27;9.23;;;4.77;;
9465;SDS011;4771;48.726;9.006;2022-10-31T06:34:54;9.00;;;4.53;;
9465;SDS011;4771;48.726;9.006;2022-10-31T06:37:21;7.47;;;4.20;;
9465;SDS011;4771;48.726;9.006;2022-10-31T06:39:48;7.47;;;4.40;;
9465;SDS011;4771;48.726;9.006;2022-10-31T06:42:16;6.80;;;4.30;;
9465;SDS011;4771;48.726;9.006;2022-10-31T06:44:43;8.60;;;4.13;;
9465;SDS011;4771;48.726;9.006;2022-10-31T06:47:10;8.63;;;4.70;;
9465;SDS011;4771;48.726;9.006;2022-10-31T06:49:37;11.17;;;4.40;;
9465;SDS011;4771;48.726;9.006;2022-10-31T06:52:04;8.60;;;4.70;;
9465;SDS011;4771;48.726;9.006;2022-10-31T06:54:31;9.43;;;4.57;;
9465;SDS011;4771;48.726;9.006;2022-10-31T06:56:58;9.80;;;4.50;;
9465;SDS011;4771;48.726;9.006;2022-10-31T06:59:26;10.90;;;4.27;;
9465;SDS011;4771;48.726;9.006;2022-10-31T07:01:53;10.23;;;4.37;;
9465;SDS011;4771;48.726;9.006;2022-10-31T07:04:20;7.60;;;4.32;;
9465;SDS011;4771;48.726;9.006;2022-10-31T07:06:49;9.97;;;4.43;;
9465;SDS011;4771;48.726;9.006;2022-10-31T07:09:17;8.32;;;4.70;;
9465;SDS011;4771;48.726;9.006;2022-10-31T07:11:44;9.73;;;5.27;;
9465;SDS011;4771;48.726;9.006;2022-10-31T07:14:10;9.00;;;4.78;;
9465;SDS011;4771;48.726;9.006;2022-10-31T07:16:39;7.05;;;4.95;;
9465;SDS011;4771;48.726;9.006;2022-10-31T07:19:06;8.13;;;4.80;;
9465;SDS011;4771;48.726;9.006;2022-10-31T07:21:33;9.25;;;4.50;;
9465;SDS011;4771;48.726;9.006;2022-10-31T07:24:00;20.77;;;14.63;;
9465;SDS011;4771;48.726;9.006;2022-10-31T07:26:27;20.60;;;11.90;;
9465;SDS011;4771;48.726;9.006;2022-10-31T07:28:54;12.27;;;9.25;;
9465;SDS011;4771;48.726;9.006;2022-10-31T07:31:21;12.90;;;7.70;;
9465;SDS011;4771;48.726;9.006;2022-10-31T07:33:50;12.93;;;7.65;;
9465;SDS011;4771;48.726;9.006;2022-10-31T07:36:17;16.80;;;6.95;;
9465;SDS011;4771;48.726;9.006;2022-10-31T07:38:43;10.32;;;5.50;;
9465;SDS011;4771;48.726;9.006;2022-10-31T07:41:10;15.48;;;9.98;;
9465;SDS011;4771;48.726;9.006;2022-10-31T07:43:37;29.10;;;17.75;;
9465;SDS011;4771;48.726;9.006;2022-10-31T07:46:04;16.58;;;12.93;;
9465;SDS011;4771;48.726;9.006;2022-10-31T07:48:31;9.48;;;7.07;;
9465;SDS011;4771;48.726;9.006;2022-10-31T07:50:59;7.32;;;5.20;;
9465;SDS011;4771;48.726;9.006;2022-10-31T07:53:27;10.05;;;4.55;;
9465;SDS011;4771;48.726;9.006;2022-10-31T07:55:54;10.48;;;6.05;;
9465;SDS011;4771;48.726;9.006;2022-10-31T07:58:21;12.18;;;5.90;;
9465;SDS011;4771;48.726;9.006;2022-10-31T08:00:48;10.52;;;6.70;;
9465;SDS011;4771;48.726;9.006;2022-10-31T08:03:15;14.40;;;7.10;;
9465;SDS011;4771;48.726;9.006;2022-10-31T08:05:44;13.32;;;6.85;;
9465;SDS011;4771;48.726;9.006;2022-10-31T08:08:13;11.68;;;5.82;;
9465;SDS011;4771;48.726;9.006;2022-10-31T08:10:41;11.60;;;5.88;;
9465;SDS011;4771;48.726;9.006;2022-10-31T08:13:09;11.73;;;5.60;;
9465;SDS011;4771;48.726;9.006;2022-10-31T08:15:37;21.85;;;14.02;;
9465;SDS011;4771;48.726;9.006;2022-10-31T08:18:06;16.10;;;8.98;;
9465;SDS011;4771;48.726;9.006;2022-10-31T08:20:37;15.65;;;13.63;;
9465;SDS011;4771;48.726;9.006;2022-10-31T08:23:05;18.23;;;12.20;;
9465;SDS011;4771;48.726;9.006;2022-10-31T08:25:34;12.18;;;9.75;;
9465;SDS011;4771;48.726;9.006;2022-10-31T08:28:01;10.27;;;6.63;;
9465;SDS011;4771;48.726;9.006;2022-10-31T08:30:29;8.80;;;4.45;;
9465;SDS011;4771;48.726;9.006;2022-10-31T08:32:58;12.13;;;4.88;;
9465;SDS011;4771;48.726;9.006;2022-10-31T08:35:26;10.90;;;4.38;;
9465;SDS011;4771;48.726;9.006;2022-10-31T08:37:53;9.52;;;4.28;;
9465;SDS011;4771;48.726;9.006;2022-10-31T08:40:21;9.30;;;4.60;;
9465;SDS011;4771;48.726;9.006;2022-10-31T08:42:56;8.60;;;4.45;;
9465;SDS011;4771;48.726;9.006;2022-10-31T08:45:26;9.82;;;4.38;;
9465;SDS011;4771;48.726;9.006;2022-10-31T08:47:57;8.52;;;4.20;;
9465;SDS011;4771;48.726;9.006;2022-10-31T08:50:25;11.55;;;4.40;;
9465;SDS011;4771;48.726;9.006;2022-10-31T08:52:53;11.23;;;4.03;;
9465;SDS011;4771;48.726;9.006;2022-10-31T08:55:20;10.77;;;4.00;;
9465;SDS011;4771;48.726;9.006;2022-10-31T08:57:47;7.18;;;3.60;;
9465;SDS011;4771;48.726;9.006;2022-10-31T09:00:15;7.82;;;3.60;;
9465;SDS011;4771;48.726;9.006;2022-10-31T09:02:42;4.85;;;3.45;;
9465;SDS011;4771;48.726;9.006;2022-10-31T09:05:09;12.02;;;3.80;;
9465;SDS011;4771;48.726;9.006;2022-10-31T09:07:36;7.47;;;3.85;;
9465;SDS011;4771;48.726;9.006;2022-10-31T09:10:03;7.30;;;3.85;;
9465;SDS011;4771;48.726;9.006;2022-10-31T09:12:31;12.20;;;4.43;;
9465;SDS011;4771;48.726;9.006;2022-10-31T09:14:58;9.52;;;3.88;;
9465;SDS011;4771;48.726;9.006;2022-10-31T09:17:27;6.95;;;3.80;;
9465;SDS011;4771;48.726;9.006;2022-10-31T09:19:54;7.57;;;4.05;;
9465;SDS011;4771;48.726;9.006;2022-10-31T09:22:22;10.40;;;4.40;;
9465;SDS011;4771;48.726;9.006;2022-10-31T09:24:49;7.53;;;4.10;;
9465;SDS011;4771;48.726;9.006;2022-10-31T09:27:16;6.63;;;3.90;;
9465;SDS011;4771;48.726;9.006;2022-10-31T09:29:43;10.68;;;4.63;;
9465;SDS011;4771;48.726;9.006;2022-10-31T09:32:10;8.52;;;4.22;;
9465;SDS011;4771;48.726;9.006;2022-10-31T09:34:38;9.00;;;4.07;;
9465;SDS011;4771;48.726;9.006;2022-10-31T09:37:05;6.65;;;3.85;;
9465;SDS011;4771;48.726;9.006;2022-10-31T09:39:32;6.72;;;3.70;;
9465;SDS011;4771;48.726;9.006;2022-10-31T09:42:04;7.28;;;4.28;;
9465;SDS011;4771;48.726;9.006;2022-10-31T09:44:44;9.45;;;4.07;;
9465;SDS011;4771;48.726;9.006;2022-10-31T09:47:18;9.75;;;4.32;;
9465;SDS011;4771;48.726;9.006;2022-10-31T09:49:59;7.13;;;4.10;;
9465;SDS011;4771;48.726;9.006;2022-10-31T09:52:38;7.75;;;4.45;;
9465;SDS011;4771;48.726;9.006;2022-10-31T09:55:13;8.13;;;4.22;;
9465;SDS011;4771;48.726;9.006;2022-10-31T09:57:43;10.93;;;4.30;;
9465;SDS011;4771;48.726;9.006;2022-10-31T10:00:14;9.73;;;3.97;;
9465;SDS011;4771;48.726;9.006;2022-10-31T10:02:44;9.13;;;3.80;;
9465;SDS011;4771;48.726;9.006;2022-10-31T10:05:17;10.32;;;3.92;;
9465;SDS011;4771;48.726;9.006;2022-10-31T10:07:49;12.10;;;5.18;;
9465;SDS011;4771;48.726;9.006;2022-10-31T10:10:25;10.55;;;4.50;;
9465;SDS011;4771;48.726;9.006;2022-10-31T10:13:08;9.73;;;4.78;;
9465;SDS011;4771;48.726;9.006;2022-10-31T10:18:52;10.40;;;4.82;;
9465;SDS011;4771;48.726;9.006;2022-10-31T10:21:33;11.45;;;4.30;;
9465;SDS011;4771;48.726;9.006;2022-10-31T10:24:23;9.88;;;4.13;;
9465;SDS011;4771;48.726;9.006;2022-10-31T10:27:03;9.82;;;3.78;;
9465;SDS011;4771;48.726;9.006;2022-10-31T10:29:37;14.75;;;4.07;;
9465;SDS011;4771;48.726;9.006;2022-10-31T10:32:11;7.47;;;4.18;;
9465;SDS011;4771;48.726;9.006;2022-10-31T10:34:44;9.00;;;3.83;;
9465;SDS011;4771;48.726;9.006;2022-10-31T10:37:20;6.80;;;3.97;;
9465;SDS011;4771;48.726;9.006;2022-10-31T10:39:53;9.10;;;4.18;;
9465;SDS011;4771;48.726;9.006;2022-10-31T10:42:24;10.65;;;3.70;;
9465;SDS011;4771;48.726;9.006;2022-10-31T10:45:13;8.18;;;4.28;;
9465;SDS011;4771;48.726;9.006;2022-10-31T10:48:04;10.20;;;3.75;;
9465;SDS011;4771;48.726;9.006;2022-10-31T10:50:36;9.73;;;3.80;;
9465;SDS011;4771;48.726;9.006;2022-10-31T10:53:12;10.50;;;3.90;;
9465;SDS011;4771;48.726;9.006;2022-10-31T10:56:03;10.70;;;3.88;;
9465;SDS011;4771;48.726;9.006;2022-10-31T10:58:37;12.20;;;3.75;;
9465;SDS011;4771;48.726;9.006;2022-10-31T11:01:09;9.45;;;4.05;;
9465;SDS011;4771;48.726;9.006;2022-10-31T11:03:38;5.10;;;3.10;;
9465;SDS011;4771;48.726;9.006;2022-10-31T11:06:15;11.07;;;3.47;;
9465;SDS011;4771;48.726;9.006;2022-10-31T11:08:48;11.15;;;3.85;;
9465;SDS011;4771;48.726;9.006;2022-10-31T11:11:19;8.18;;;3.45;;
9465;SDS011;4771;48.726;9.006;2022-10-31T11:13:52;12.20;;;3.40;;
9465;SDS011;4771;48.726;9.006;2022-10-31T11:16:29;10.30;;;3.63;;
9465;SDS011;4771;48.726;9.006;2022-10-31T11:19:05;7.07;;;3.13;;
9465;SDS011;4771;48.726;9.006;2022-10-31T11:21:34;6.25;;;3.15;;
9465;SDS011;4771;48.726;9.006;2022-10-31T11:24:03;6.70;;;3.53;;
9465;SDS011;4771;48.726;9.006;2022-10-31T11:26:37;7.13;;;3.25;;
9465;SDS011;4771;48.726;9.006;2022-10-31T11:29:09;9.52;;;3.65;;
9465;SDS011;4771;48.726;9.006;2022-10-31T11:31:40;4.85;;;3.20;;
9465;SDS011;4771;48.726;9.006;2022-10-31T11:34:12;6.35;;;2.78;;
9465;SDS011;4771;48.726;9.006;2022-10-31T11:36:44;7.03;;;3.20;;
9465;SDS011;4771;48.726;9.006;2022-10-31T11:39:17;8.13;;;3.10;;
9465;SDS011;4771;48.726;9.006;2022-10-31T11:41:47;7.15;;;2.95;;
9465;SDS011;4771;48.726;9.006;2022-10-31T11:44:16;12.70;;;3.72;;
9465;SDS011;4771;48.726;9.006;2022-10-31T11:46:45;6.32;;;3.35;;
9465;SDS011;4771;48.726;9.006;2022-10-31T11:49:15;7.50;;;3.00;;
9465;SDS011;4771;48.726;9.006;2022-10-31T11:51:47;9.27;;;3.20;;
9465;SDS011;4771;48.726;9.006;2022-10-31T11:54:20;5.57;;;2.78;;
9465;SDS011;4771;48.726;9.006;2022-10-31T11:56:49;7.15;;;3.28;;
9465;SDS011;4771;48.726;9.006;2022-10-31T11:59:18;8.73;;;3.28;;
9465;SDS011;4771;48.726;9.006;2022-10-31T12:01:50;9.07;;;3.08;;
9465;SDS011;4771;48.726;9.006;2022-10-31T12:04:18;10.25;;;3.58;;
9465;SDS011;4771;48.726;9.006;2022-10-31T12:06:50;9.57;;;3.55;;
9465;SDS011;4771;48.726;9.006;2022-10-31T12:09:22;11.98;;;3.83;;
9465;SDS011;4771;48.726;9.006;2022-10-31T12:11:56;10.80;;;3.70;;
9465;SDS011;4771;48.726;9.006;2022-10-31T12:14:52;9.77;;;3.35;;
9465;SDS011;4771;48.726;9.006;2022-10-31T12:17:29;8.45;;;4.00;;
9465;SDS011;4771;48.726;9.006;2022-10-31T12:20:05;8.38;;;3.38;;
9465;SDS011;4771;48.726;9.006;2022-10-31T12:22:40;6.97;;;3.30;;
9465;SDS011;4771;48.726;9.006;2022-10-31T12:25:19;8.15;;;3.25;;
9465;SDS011;4771;48.726;9.006;2022-10-31T12:28:03;8.82;;;3.50;;
9465;SDS011;4771;48.726;9.006;2022-10-31T12:30:59;10.45;;;3.63;;
9465;SDS011;4771;48.726;9.006;2022-10-31T12:33:43;9.10;;;3.63;;
9465;SDS011;4771;48.726;9.006;2022-10-31T12:36:25;5.50;;;3.30;;
9465;SDS011;4771;48.726;9.006;2022-10-31T12:39:15;9.07;;;3.45;;
9465;SDS011;4771;48.726;9.006;2022-10-31T12:41:52;8.63;;;3.78;;
9465;SDS011;4771;48.726;9.006;2022-10-31T12:44:30;7.55;;;3.40;;
9465;SDS011;4771;48.726;9.006;2022-10-31T12:47:11;7.20;;;3.88;;
9465;SDS011;4771;48.726;9.006;2022-10-31T12:49:59;6.45;;;3.80;;
9465;SDS011;4771;48.726;9.006;2022-10-31T12:52:40;12.18;;;3.80;;
9465;SDS011;4771;48.726;9.006;2022-10-31T12:55:22;7.97;;;3.60;;
9465;SDS011;4771;48.726;9.006;2022-10-31T12:58:09;9.73;;;3.85;;
9465;SDS011;4771;48.726;9.006;2022-10-31T13:00:41;10.98;;;3.80;;
9465;SDS011;4771;48.726;9.006;2022-10-31T13:03:17;6.93;;;3.42;;
9465;SDS011;4771;48.726;9.006;2022-10-31T13:05:51;8.82;;;3.70;;
9465;SDS011;4771;48.726;9.006;2022-10-31T13:08:24;9.27;;;5.03;;
9465;SDS011;4771;48.726;9.006;2022-10-31T13:10:58;7.90;;;4.13;;
9465;SDS011;4771;48.726;9.006;2022-10-31T13:13:33;12.65;;;4.30;;
9465;SDS011;4771;48.726;9.006;2022-10-31T13:16:04;10.73;;;4.38;;
9465;SDS011;4771;48.726;9.006;2022-10-31T13:18:38;7.80;;;4.15;;
9465;SDS011;4771;48.726;9.006;2022-10-31T13:21:09;10.98;;;4.40;;
9465;SDS011;4771;48.726;9.006;2022-10-31T13:23:40;9.30;;;4.05;;
9465;SDS011;4771;48.726;9.006;2022-10-31T13:26:10;10.82;;;4.05;;
9465;SDS011;4771;48.726;9.006;2022-10-31T13:28:43;92.38;;;13.68;;
9465;SDS011;4771;48.726;9.006;2022-10-31T13:31:13;27.52;;;5.65;;
9465;SDS011;4771;48.726;9.006;2022-10-31T13:33:41;13.77;;;3.78;;
9465;SDS011;4771;48.726;9.006;2022-10-31T13:36:17;8.60;;;3.30;;
9465;SDS011;4771;48.726;9.006;2022-10-31T13:38:50;7.93;;;3.10;;
9465;SDS011;4771;48.726;9.006;2022-10-31T13:41:29;12.57;;;3.70;;
9465;SDS011;4771;48.726;9.006;2022-10-31T13:44:06;8.77;;;4.03;;
9465;SDS011;4771;48.726;9.006;2022-10-31T13:46:40;12.60;;;4.75;;
9465;SDS011;4771;48.726;9.006;2022-10-31T13:49:25;11.63;;;4.05;;
9465;SDS011;4771;48.726;9.006;2022-10-31T13:52:07;7.97;;;4.10;;
9465;SDS011;4771;48.726;9.006;2022-10-31T13:54:40;8.55;;;3.83;;
9465;SDS011;4771;48.726;9.006;2022-10-31T13:57:13;12.50;;;3.80;;
9465;SDS011;4771;48.726;9.006;2022-10-31T13:59:47;13.02;;;4.07;;
9465;SDS011;4771;48.726;9.006;2022-10-31T14:02:19;12.10;;;4.13;;
9465;SDS011;4771;48.726;9.006;2022-10-31T14:04:51;12.93;;;4.60;;
9465;SDS011;4771;48.726;9.006;2022-10-31T14:07:22;8.70;;;4.20;;
9465;SDS011;4771;48.726;9.006;2022-10-31T14:09:52;12.95;;;5.07;;
9465;SDS011;4771;48.726;9.006;2022-10-31T14:12:23;11.90;;;4.07;;
9465;SDS011;4771;48.726;9.006;2022-10-31T14:14:55;14.20;;;4.60;;
9465;SDS011;4771;48.726;9.006;2022-10-31T14:17:27;7.97;;;4.45;;
9465;SDS011;4771;48.726;9.006;2022-10-31T14:20:02;10.25;;;4.15;;
9465;SDS011;4771;48.726;9.006;2022-10-31T14:22:57;10.75;;;4.63;;
9465;SDS011;4771;48.726;9.006;2022-10-31T14:25:25;10.15;;;4.78;;
9465;SDS011;4771;48.726;9.006;2022-10-31T14:27:53;22.35;;;5.97;;
9465;SDS011;4771;48.726;9.006;2022-10-31T14:30:23;16.70;;;6.30;;
9465;SDS011;4771;48.726;9.006;2022-10-31T14:32:54;17.70;;;6.28;;
9465;SDS011;4771;48.726;9.006;2022-10-31T14:35:25;10.95;;;5.07;;
9465;SDS011;4771;48.726;9.006;2022-10-31T14:38:25;10.98;;;4.95;;
9465;SDS011;4771;48.726;9.006;2022-10-31T14:41:11;8.88;;;4.78;;
9465;SDS011;4771;48.726;9.006;2022-10-31T14:44:10;13.75;;;4.93;;
9465;SDS011;4771;48.726;9.006;2022-10-31T14:46:53;9.82;;;5.13;;
9465;SDS011;4771;48.726;9.006;2022-10-31T14:49:33;11.23;;;4.82;;
9465;SDS011;4771;48.726;9.006;2022-10-31T14:52:14;10.05;;;4.65;;
9465;SDS011;4771;48.726;9.006;2022-10-31T14:54:43;10.80;;;4.70;;
9465;SDS011;4771;48.726;9.006;2022-10-31T14:57:19;9.82;;;4.50;;
9465;SDS011;4771;48.726;9.006;2022-10-31T14:59:50;9.98;;;4.63;;
9465;SDS011;4771;48.726;9.006;2022-10-31T15:02:22;11.38;;;4.63;;
9465;SDS011;4771;48.726;9.006;2022-10-31T15:04:54;12.00;;;4.40;;
9465;SDS011;4771;48.726;9.006;2022-10-31T15:07:24;20.50;;;5.47;;
9465;SDS011;4771;48.726;9.006;2022-10-31T15:09:55;18.48;;;4.65;;
9465;SDS011;4771;48.726;9.006;2022-10-31T15:12:24;12.23;;;4.60;;
9465;SDS011;4771;48.726;9.006;2022-10-31T15:14:53;10.35;;;4.45;;
9465;SDS011;4771;48.726;9.006;2022-10-31T15:17:22;10.05;;;4.35;;
9465;SDS011;4771;48.726;9.006;2022-10-31T15:19:50;12.85;;;4.13;;
9465;SDS011;4771;48.726;9.006;2022-10-31T15:22:19;11.55;;;4.75;;
9465;SDS011;4771;48.726;9.006;2022-10-31T15:24:49;10.32;;;4.78;;
9465;SDS011;4771;48.726;9.006;2022-10-31T15:27:21;11.57;;;4.45;;
9465;SDS011;4771;48.726;9.006;2022-10-31T15:29:50;11.10;;;4.15;;
9465;SDS011;4771;48.726;9.006;2022-10-31T15:32:19;8.68;;;4.40;;
9465;SDS011;4771;48.726;9.006;2022-10-31T15:34:49;9.95;;;4.55;;
9465;SDS011;4771;48.726;9.006;2022-10-31T15:37:18;9.38;;;4.32;;
9465;SDS011;4771;48.726;9.006;2022-10-31T15:39:46;11.02;;;4.55;;
9465;SDS011;4771;48.726;9.006;2022-10-31T15:42:16;8.75;;;4.10;;
9465;SDS011;4771;48.726;9.006;2022-10-31T15:44:46;11.73;;;4.05;;
9465;SDS011;4771;48.726;9.006;2022-10-31T15:47:16;9.80;;;4.30;;
9465;SDS011;4771;48.726;9.006;2022-10-31T15:49:47;12.65;;;4.57;;